Tiempo atmosférico en la estación meteorológica de Tortosa, Tarragona (44 m.)



Fecha
DESCASC
Temp. máxima en grados centígrados (hora)
DESCASC
Temp. mínima en grados centígrados (hora)
DESCASC
Temp. media en grados centígrados
DESCASC
Racha de viento máxima en m/sg (hora)
DESCASC
Velocidad máxima media en intervalos de 10 minutos(hora)
DESCASC
Precipitaciones diarias en mm
DESCASC
Precipitaciones de 00:00 a 06:00 en mm
DESCASC
Precipitaciones de 06:00 a 12:00 en mm
DESCASC
Precipitaciones de 12:00 a 18:00 en mm
DESCASC
Precipitaciones de 18:00 a 24:00 en mm
DESCASC
14-08-2019 36 (16:20) 18.2 (00:00) 27.1 8.33 (16:20) 5 (18:40) 0 0 0 0 0
29-07-2019 35.5 (16:20) 18.6 (00:00) 27.1 9.17 (17:30) 5.56 (17:30) 0 0 0 0 0
20-08-2019 25.2 (00:00) 18.8 (00:00) 22 10 (15:40) 4.44 (15:30) 17.6 0 14.8 2.8 0
24-08-2019 34.3 (15:10) 18.9 (00:00) 26.6 8.89 (17:40) 5 (15:50) 0 0 0 0 0
21-08-2019 32.7 (15:50) 19.2 (00:00) 26 8.89 (16:30) 5 (17:20) 0.2 0 0 0 0.2
02-08-2019 36.2 (13:30) 19.6 (00:00) 27.9 10.83 (16:40) 6.11 (15:50) 0 0 0 0 0
23-08-2019 34.1 (13:20) 19.7 (00:00) 26.9 10 (14:30) 5 (15:50) 0 0 0 0 0
28-07-2019 33.9 (17:00) 20 (00:00) 27 24.17 (01:10) 13.33 (00:20) 0 0 0 0 0
22-08-2019 34.1 (15:20) 20.3 (00:00) 27.2 8.33 (18:30) 5 (18:30) 0 0 0 0 0
13-08-2019 33.1 (16:10) 20.3 (00:00) 26.7 12.22 (06:10) 6.39 (05:50) 0 0 0 0 0
15-08-2019 35.2 (14:50) 20.6 (00:00) 27.9 8.61 (18:40) 5 (14:40) 0 0 0 0 0
03-08-2019 34.1 (13:00) 21 (00:00) 27.5 11.67 (17:50) 6.39 (18:30) 0 0 0 0 0
31-07-2019 32.5 (14:10) 21.4 (00:00) 26.9 10.83 (09:50) 5.28 (09:20) 0 0 0 0 0
01-08-2019 33.1 (18:00) 21.5 (00:00) 27.3 8.61 (13:10) 4.72 (15:10) 0 0 0 0 0
04-08-2019 34.3 (13:00) 21.6 (00:00) 27.9 11.11 (15:00) 5.83 (15:30) 0 0 0 0 0
17-08-2019 33.6 (13:40) 21.6 (00:00) 27.6 11.39 (15:20) 5.83 (16:30) 0 0 0 0 0
05-08-2019 35.1 (15:10) 22 (00:00) 28.5 9.72 (17:00) 5.28 (16:30) 0 0 0 0 0
09-08-2019 39.2 (16:50) 22.1 (00:00) 30.7 8.61 (14:40) 5 (14:00) 0 0 0 0 0
18-08-2019 34.1 (15:20) 22.2 (00:00) 28.1 10.28 (17:00) 5.28 (16:30) 0 0 0 0 0
16-08-2019 32.8 (12:40) 22.3 (00:00) 27.5 9.44 (16:50) 5.28 (15:50) 0 0 0 0 0
12-08-2019 33.3 (16:10) 22.5 (00:00) 27.9 11.94 (02:10) 5.83 (23:59) 0 0 0 0 0
27-07-2019 34.4 (17:00) 22.7 (00:00) 28.6 19.72 (23:40) 11.94 (23:40) 0.2 0 0 0.2 0
26-07-2019 32.7 (13:30) 22.7 (00:00) 27.7 11.11 (18:40) 5.83 (18:40) 0.2 0 0 0 0.2
30-07-2019 36.7 (15:30) 22.8 (00:00) 29.8 11.94 (10:10) 6.39 (10:20) 0 0 0 0 0
19-08-2019 31.3 (13:50) 23.2 (00:00) 27.3 11.94 (16:00) 5.83 (16:00) 0 0 0 0 0
06-08-2019 35.9 (15:30) 23.2 (00:00) 29.6 8.33 (17:00) 4.44 (18:00) 0 0 0 0 0
08-08-2019 38.1 (13:50) 23.8 (00:00) 30.9 10.28 (16:20) 5.83 (17:10) 0 0 0 0 0
07-08-2019 35.3 (12:40) 24.7 (00:00) 30 9.17 (15:50) 4.17 (13:20) 0 0 0 0 0
11-08-2019 35.6 (15:20) 25 (00:00) 30.3 7.78 (15:30) 4.17 (15:30) 13.2 0 0 13.2 0
10-08-2019 37.6 (13:00) 26 (00:00) 31.8 11.11 (04:40) 6.11 (14:30) 0 0 0 0 0

Gráficas

Temp. máximas Temp. mínimas Temp. medias Precipitaciones Rachas de viento máximas Velocidades máximas media en intervalos de 10 minutos

Datos horarios

Fecha y hora oficial Temperatura (ºC) Velocidad del viento (km/h) Dirección del viento Racha (km/h) Dirección de racha Precipitación (mm) Presión (hPa) Tendencia (hPa) Humedad (%)
2019-08-24 23:00:00 24 5 Sudeste 14 Sudeste 0 1013.6 1.4 80
2019-08-24 22:00:00 25 9 Sudeste 19 Sudeste 0 1013.2 1 75
2019-08-24 21:00:00 26.2 11 Sudeste 28 Sudeste 0 1012.6 0.2 68
2019-08-24 20:00:00 28.2 14 Sudeste 26 Sudeste 0 1012.2 -0.5 53
2019-08-24 19:00:00 30.3 14 Sudeste 30 Sudeste 0 1012.2 -0.9 45
2019-08-24 18:00:00 31.7 14 Sudeste 32 Sudeste 0 1012.4 -1 45
2019-08-24 17:00:00 32.7 15 Sudeste 29 Este 0 1012.7 -1.1 40
2019-08-24 16:00:00 33.7 17 Sudeste 31 Sudeste 0 1013.1 -1 38
2019-08-24 15:00:00 34.2 13 Sudeste 26 Sur 0 1013.4 -1.2 40
2019-08-24 14:00:00 33.9 11 Sur 24 Sudeste 0 1013.8 -0.9 42
2019-08-24 13:00:00 32.9 9 Sur 19 Sur 0 1014.1 -0.6 39
2019-08-24 12:00:00 31.1 8 Sur 15 Sudeste 0 1014.6 0 44
2019-08-24 11:00:00 28.3 4 Sudeste 10 Sur 0 1014.7 0.3 57
2019-08-24 10:00:00 25.3 3 Sudeste 7 Sudeste 0 1014.7 0.5 69
2019-08-24 09:00:00 22.6 3 Norte 9 Norte 0 1014.6 0.6 77
2019-08-24 08:00:00 19.3 4 Norte 8 Norte 0 1014.4 0.3 89
2019-08-24 07:00:00 19.1 5 Noroeste 8 Norte 0 1014.2 0 88
2019-08-24 06:00:00 19.6 5 Norte 6 Norte 0 1014 -0.2 88
2019-08-24 05:00:00 20.1 5 Noroeste 6 Noroeste 0 1014.1 -0.4 88
2019-08-24 04:00:00 20.8 4 Norte 5 Noroeste 0 1014.2 0 85
2019-08-24 03:00:00 21 4 Norte 5 Nordeste 0 1014.2 0 85
2019-08-24 02:00:00 21.8 0 Calma 4 Sudeste 0 1014.5 0.3 82
2019-08-24 01:00:00 22.4 2 Sur 8 Sur 0 1014.2 0 80
2019-08-24 00:00:00 22.8 4 Sur 9 Sur 0 1014.2 0.6 77
2019-08-23 23:00:00 23.6 6 Sur 9 Sur 0 1014.2 0.7 73
2019-08-23 22:00:00 24.6 7 Sur 18 Sudeste 0 1014.2 0.7 69
2019-08-23 21:00:00 25.8 11 Sudeste 22 Sudeste 0 1013.6 0 61
2019-08-23 20:00:00 27.6 10 Sudeste 24 Sur 0 1013.5 -0.3 53
2019-08-23 19:00:00 29.2 13 Sudeste 30 Sudeste 0 1013.5 -0.4 53
2019-08-23 18:00:00 30.2 14 Sudeste 30 Sur 0 1013.6 -0.8 54
2019-08-23 17:00:00 31.8 14 Sudeste 34 Sudeste 0 1013.8 -0.7 52
2019-08-23 16:00:00 33 18 Sudeste 31 Sudeste 0 1013.9 -1 46
2019-08-23 15:00:00 33.3 16 Sudeste 36 Sudeste 0 1014.4 -0.9 45
2019-08-23 14:00:00 33 15 Sudeste 28 Sudeste 0 1014.5 -1.1 44
2019-08-23 13:00:00 33.7 10 Sur 21 Sur 0 1014.9 -0.6 38
2019-08-23 12:00:00 31.4 6 Sur 13 Sur 0 1015.3 -0.1 42
2019-08-23 11:00:00 29.8 4 Norte 12 Norte 0 1015.6 0.3 48
2019-08-23 10:00:00 26.6 4 Norte 14 Norte 0 1015.5 0.4 62
2019-08-23 09:00:00 23.3 5 Norte 19 Noroeste 0 1015.4 0.6 80
2019-08-23 08:00:00 20 6 Norte 9 Norte 0 1015.3 0.1 90
2019-08-23 07:00:00 19.8 3 Nordeste 9 Noroeste 0 1015.1 -0.6 90
2019-08-23 06:00:00 20.3 6 Noroeste 10 Noroeste 0 1014.8 -1.1 89
2019-08-23 05:00:00 21 8 Noroeste 10 Noroeste 0 1015.2 -0.8 86
2019-08-23 04:00:00 21.3 5 Norte 7 Norte 0 1015.7 -0.1 88
2019-08-23 03:00:00 22 2 Sudeste 8 Sudoeste 0 1015.9 0.4 86
2019-08-23 02:00:00 22.5 6 Sudoeste 15 Sudoeste 0 1016 0.7 84
2019-08-23 01:00:00 22.7 7 Oeste 10 Oeste 0 1015.8 0.9 83
2019-08-23 00:00:00 23.2 4 Sudoeste 8 Oeste 0 1015.5 1.4 77
2019-08-22 23:00:00 24 3 Sudoeste 9 Sudeste 0 1015.3 1.5 72
2019-08-22 22:00:00 25 6 Sudeste 17 Sudeste 0 1014.9 1.2 67
2019-08-22 21:00:00 26.5 8 Sudeste 21 Sur 0 1014.1 0.2 59
2019-08-22 20:00:00 28.7 10 Sur 27 Sur 0 1013.8 -0.1 52
2019-08-22 19:00:00 30.8 14 Sur 30 Sur 0 1013.7 -0.4 44
2019-08-22 18:00:00 32.3 15 Sur 29 Sur 0 1013.9 -0.4 42
2019-08-22 17:00:00 32.2 15 Sudeste 29 Sur 0 1013.9 -0.8 36
2019-08-22 16:00:00 33.3 13 Sudeste 27 Sudeste 0 1014.1 -1.1 35
2019-08-22 15:00:00 33.5 11 Este 21 Sur 0 1014.3 -1.3 32
2019-08-22 14:00:00 33.3 8 Nordeste 22 Norte 0 1014.7 -1.1 29
2019-08-22 13:00:00 32.6 10 Nordeste 23 Nordeste 0 1015.2 -0.7 28
2019-08-22 12:00:00 30.7 12 Nordeste 26 Norte 0 1015.6 -0.2 33
2019-08-22 11:00:00 29 10 Nordeste 27 Nordeste 0 1015.8 0.5 38
2019-08-22 10:00:00 26.4 11 Norte 25 Nordeste 0 1015.9 1.1 44
2019-08-22 09:00:00 23.4 10 Norte 21 Norte 0 1015.8 1 56
2019-08-22 08:00:00 20.9 9 Norte 17 Noroeste 0 1015.3 0.7 65
2019-08-22 07:00:00 20.9 9 Norte 20 Norte 0 1014.8 0.6 65
2019-08-22 06:00:00 20.3 8 Norte 18 Nordeste 0 1014.8 0.6 79
2019-08-22 05:00:00 20.5 7 Noroeste 13 Noroeste 0 1014.6 0.2 92
2019-08-22 04:00:00 20.9 4 Nordeste 13 Oeste 0 1014.2 -0.2 91
2019-08-22 03:00:00 21.2 9 Oeste 13 Sudeste 0 1014.2 -0.4 90
2019-08-22 02:00:00 21.4 0 Calma 12 Norte 0 1014.4 0 88
2019-08-22 01:00:00 21.4 7 Norte 12 Noroeste 0 1014.4 0.4 89
2019-08-22 00:00:00 21.5 4 Norte 10 Noroeste 0 1014.6 1.7 90
2019-08-21 23:00:00 21.8 3 Sudeste 11 Sudeste 0 1014.4 1.6 88
2019-08-21 22:00:00 22.3 4 Este 9 Oeste 0 1014 1 88
2019-08-21 21:00:00 22.8 5 Sudeste 13 Este 0.2 1012.9 -0.3 88
2019-08-21 20:00:00 24.1 7 Sudeste 15 Sudeste 0 1012.8 -0.4 79
2019-08-21 19:00:00 25 10 Sur 23 Sur 0 1013 0.1 71
2019-08-21 18:00:00 26.3 13 Sur 32 Sur 0 1013.2 -0.5 66
2019-08-21 17:00:00 28.1 17 Sur 32 Sudoeste 0 1013.2 -1.1 59
2019-08-21 16:00:00 31.8 12 Sur 22 Sudeste 0 1012.9 -2.1 48
2019-08-21 15:00:00 31.1 5 Este 15 Sudeste 0 1013.7 -2.2 45
2019-08-21 14:00:00 30.3 5 Sudeste 13 Sudeste 0 1014.3 -1.9 51
2019-08-21 13:00:00 28.8 5 Sudeste 15 Sudeste 0 1015 -1.4 51
2019-08-21 12:00:00 27 3 Norte 10 Norte 0 1015.9 -0.7 58
2019-08-21 11:00:00 24.8 4 Sudeste 7 Este 0 1016.2 -0.3 62
2019-08-21 10:00:00 22.9 3 Norte 16 Norte 0 1016.4 0.1 66
2019-08-21 09:00:00 21.3 6 Noroeste 12 Noroeste 0 1016.6 0.5 70
2019-08-21 08:00:00 20.2 8 Noroeste 14 Norte 0 1016.5 0.1 74
2019-08-21 07:00:00 19.7 8 Norte 14 Norte 0 1016.3 -0.1 84
2019-08-21 06:00:00 19.3 7 Noroeste 12 Noroeste 0 1016.1 -0.6 88
2019-08-21 05:00:00 19.5 4 Norte 10 Norte 0 1016.4 -0.3 87
2019-08-21 04:00:00 19.9 5 Norte 11 Noroeste 0 1016.4 -0.5 85
2019-08-21 03:00:00 20.3 4 Norte 15 Norte 0 1016.7 -0.3 84
2019-08-21 02:00:00 20.5 8 Norte 13 Norte 0 1016.7 0 82
2019-08-21 01:00:00 20.9 4 Norte 10 Norte 0 1016.9 0.5 84
2019-08-21 00:00:00 21.2 7 Noroeste 13 Noroeste 0 1017 0.9 78
2019-08-20 23:00:00 21.1 6 Norte 12 Norte 0 1016.7 0.8 79
2019-08-20 22:00:00 21.4 8 Norte 14 Norte 0 1016.4 1 78
2019-08-20 21:00:00 21.8 8 Norte 17 Norte 0 1016.1 0.6 74
2019-08-20 20:00:00 22.9 6 Norte 23 Norte 0 1015.9 0.2 71
2019-08-20 19:00:00 23.9 11 Norte 29 Nordeste 0 1015.4 0 67
2019-08-20 18:00:00 23.7 14 Norte 31 Nordeste 0 1015.5 -0.1 67
2019-08-20 17:00:00 22.7 13 Nordeste 28 Norte 0 1015.7 0 72
2019-08-20 16:00:00 22.5 14 Norte 36 Noroeste 0 1015.4 -0.5 73
2019-08-20 15:00:00 22.2 12 Norte 31 Norte 0 1015.6 -0.4 79
2019-08-20 14:00:00 19.9 9 Norte 26 Norte 0.4 1015.7 0.6 96
2019-08-20 13:00:00 19.3 12 Norte 26 Norte 2.4 1015.9 1.8 96
2019-08-20 12:00:00 19 15 Norte 31 Norte 5.4 1016 2.9 96
2019-08-20 11:00:00 19.1 13 Norte 27 Norte 1.4 1015.1 2.7 96
2019-08-20 10:00:00 18.9 10 Norte 25 Norte 3 1014.1 2.5 96
2019-08-20 09:00:00 19.2 10 Norte 22 Norte 4 1013.1 1.9 93
2019-08-20 08:00:00 20.3 10 Norte 23 Norte 1 1012.4 1.4 87
2019-08-20 07:00:00 22.4 8 Norte 23 Norte 0 1011.6 0.3 73
2019-08-20 06:00:00 23.5 9 Norte 18 Norte 0 1011.2 0.1 71
2019-08-20 05:00:00 24.6 4 Este 16 Este 0 1011 -0.5 82
2019-08-20 04:00:00 24.6 6 Este 13 Este 0 1011.3 -0.6 81
2019-08-20 03:00:00 24.4 5 Sudoeste 12 Este 0 1011.1 -1 83
2019-08-20 02:00:00 24.9 0 Calma 13 Sudeste 0 1011.5 -0.5 81
2019-08-20 01:00:00 25.1 5 Sur 13 Sudeste 0 1011.9 0.3 81
2019-08-20 00:00:00 25.2 9 Sudeste 19 Sudeste 0 1012.1 0.6 81
2019-08-19 23:00:00 25.4 6 Sudeste 13 Sudeste 0 1012 0.9 80
2019-08-19 22:00:00 25.5 6 Sur 15 Sur 0 1011.6 0.5 78
2019-08-19 21:00:00 26.1 6 Sudeste 12 Sur 0 1011.5 0.8 76
2019-08-19 20:00:00 26.5 7 Sudeste 18 Sudeste 0 1011.1 0.3 75
2019-08-19 19:00:00 26.7 12 Sudeste 28 Este 0 1011.1 0.1 71
2019-08-19 18:00:00 28.3 16 Este 34 Sudeste 0 1010.7 -0.6 67
2019-08-19 17:00:00 29.2 16 Este 33 Este 0 1010.8 -0.5 61
2019-08-19 16:00:00 29.3 21 Este 43 Este 0 1011 -0.6 61
2019-08-19 15:00:00 29.4 17 Este 36 Este 0 1011.3 -0.4 62
2019-08-19 14:00:00 30.8 11 Sudeste 20 Sudeste 0 1011.3 0.1 54
2019-08-19 13:00:00 29.7 4 Noroeste 19 Noroeste 0 1011.6 0.9 45
2019-08-19 12:00:00 27.1 12 Norte 25 Norte 0 1011.7 1.3 47
2019-08-19 11:00:00 26.6 12 Norte 28 Norte 0 1011.2 1.1 48
2019-08-19 10:00:00 25.9 12 Nordeste 27 Norte 0 1010.7 1.2 50
2019-08-19 09:00:00 26.1 13 Norte 25 Norte 0 1010.4 1.3 50
2019-08-19 08:00:00 23.7 11 Norte 21 Norte 0 1010.1 1.3 58
2019-08-19 07:00:00 23.2 10 Norte 23 Norte 0 1009.5 0.7 59
2019-08-19 06:00:00 23.6 11 Norte 25 Nordeste 0 1009.1 0.2 61
2019-08-19 05:00:00 23.7 10 Norte 23 Norte 0 1008.8 -0.1 68
2019-08-19 04:00:00 24.1 9 Norte 18 Nordeste 0 1008.8 0.1 90
2019-08-19 03:00:00 24.5 5 Noroeste 11 Noroeste 0 1008.9 1.2 89
2019-08-19 02:00:00 25.1 2 Norte 7 Noroeste 0 1008.9 1.3 87
2019-08-19 01:00:00 25.2 5 Sudoeste 16 Sur 0 1008.7 1.7 88
2019-08-19 00:00:00 25.4 10 Sur 18 Sudeste 0 1007.7 1.5 87
2019-08-18 23:00:00 25.7 11 Sudeste 20 Sudeste 0 1007.6 1.7 85
2019-08-18 22:00:00 26.2 11 Sudeste 26 Sudeste 0 1007 1.2 83
2019-08-18 21:00:00 26.8 11 Sudeste 30 Sudeste 0 1006.2 0.1 79
2019-08-18 20:00:00 27.8 16 Sudeste 34 Sudeste 0 1005.9 -0.4 72
2019-08-18 19:00:00 29.2 19 Sudeste 35 Sudeste 0 1005.8 -0.9 67
2019-08-18 18:00:00 30.1 17 Sudeste 35 Sudeste 0 1006.1 -0.7 63
2019-08-18 17:00:00 29.7 19 Sudeste 37 Sudeste 0 1006.3 -1 64
2019-08-18 16:00:00 31.4 15 Sudeste 34 Sudeste 0 1006.7 -1 60
2019-08-18 15:00:00 33.7 16 Sudeste 32 Sudeste 0 1006.8 -1 54
2019-08-18 14:00:00 33.1 15 Sudeste 29 Sudeste 0 1007.3 -0.5 55
2019-08-18 13:00:00 32.7 14 Sudeste 27 Sudeste 0 1007.7 0 55
2019-08-18 12:00:00 31.4 12 Sudeste 24 Este 0 1007.8 0.1 59
2019-08-18 11:00:00 30.3 11 Sudeste 24 Sudeste 0 1007.8 0.3 59
2019-08-18 10:00:00 28.3 6 Sur 11 Sur 0 1007.7 0.2 67
2019-08-18 09:00:00 24.8 3 Sudoeste 6 Sudoeste 0 1007.7 0.2 76
2019-08-18 08:00:00 22.5 0 Calma 5 Sur 0 1007.5 -0.5 88
2019-08-18 07:00:00 22.3 5 Sur 7 Sur 0 1007.5 -0.8 88
2019-08-18 06:00:00 22.7 4 Sur 6 Sur 0 1007.5 -1.1 88
2019-08-18 05:00:00 23.1 4 Sur 12 Sudeste 0 1008 -0.9 88
2019-08-18 04:00:00 23.5 8 Sur 14 Sudeste 0 1008.3 -0.6 89
2019-08-18 03:00:00 23.8 9 Sudeste 20 Sur 0 1008.6 -0.3 88
2019-08-18 02:00:00 24.1 10 Sudeste 15 Sudeste 0 1008.9 -0.1 88
2019-08-18 01:00:00 24.3 9 Sur 15 Sur 0 1008.9 0 85
2019-08-18 00:00:00 24.8 9 Sudeste 15 Sudeste 0 1008.9 0.4 82
2019-08-17 23:00:00 25.4 9 Sudeste 22 Sudeste 0 1009 0.5 79
2019-08-17 22:00:00 25.9 9 Sudeste 23 Sudeste 0 1008.9 0.2 78
2019-08-17 21:00:00 26.5 13 Sudeste 29 Sudeste 0 1008.5 -0.5 75
2019-08-17 20:00:00 27.6 15 Sudeste 32 Sudeste 0 1008.5 -0.7 70
2019-08-17 19:00:00 28.3 19 Sudeste 32 Sudeste 0 1008.7 -1 67
2019-08-17 18:00:00 30.4 17 Sudeste 33 Sudeste 0 1009 -1.1 59
2019-08-17 17:00:00 31 21 Sudeste 37 Sudeste 0 1009.2 -1.2 58
2019-08-17 16:00:00 32.1 19 Sudeste 41 Sudeste 0 1009.7 -1 53
2019-08-17 15:00:00 32.6 19 Sudeste 38 Sudeste 0 1010.1 -1 52
2019-08-17 14:00:00 33.2 17 Sudeste 32 Sur 0 1010.4 -0.8 51
2019-08-17 13:00:00 32.4 14 Sudeste 28 Sudeste 0 1010.7 -0.6 54
2019-08-17 12:00:00 31.3 14 Sudeste 25 Este 0 1011.1 -0.2 57
2019-08-17 11:00:00 30.9 8 Sudeste 20 Sudeste 0 1011.2 0 56
2019-08-17 10:00:00 28 9 Sudeste 19 Este 0 1011.3 0.3 66
2019-08-17 09:00:00 23.5 5 Sur 8 Sudeste 0 1011.3 0.4 75
2019-08-17 08:00:00 21.9 4 Sur 8 Sudeste 0 1011.2 0.3 82
2019-08-17 07:00:00 21.9 3 Este 5 Noroeste 0 1011 0.1 81
2019-08-17 06:00:00 22.6 6 Noroeste 13 Sudoeste 0 1010.9 0 80
2019-08-17 05:00:00 22.8 8 Sudoeste 13 Sudoeste 0 1010.9 -0.4 74
2019-08-17 04:00:00 23.2 6 Sudoeste 10 Sur 0 1010.9 -0.4 76
2019-08-17 03:00:00 23.7 7 Sur 11 Sur 0 1010.9 -0.4 74
2019-08-17 02:00:00 24.3 3 Sudeste 11 Sudeste 0 1011.3 -0.2 75
2019-08-17 01:00:00 24.6 6 Sur 11 Sudeste 0 1011.3 0.1 74
2019-08-17 00:00:00 25 6 Sudeste 11 Sudeste 0 1011.3 0.6 71
2019-08-16 23:00:00 25.5 6 Sudeste 16 Sudeste 0 1011.5 1 70
2019-08-16 22:00:00 26.5 11 Sur 22 Sur 0 1011.2 0.9 64
2019-08-16 21:00:00 27.6 13 Sur 22 Sur 0 1010.7 0.1 57
2019-08-16 20:00:00 29.2 9 Sudeste 23 Sudeste 0 1010.5 -0.7 54
2019-08-16 19:00:00 30.8 14 Sudeste 29 Sudeste 0 1010.3 -1.4 51
2019-08-16 18:00:00 31.2 15 Sudeste 32 Este 0 1010.6 -1.7 44
2019-08-16 17:00:00 31.7 18 Sudeste 34 Sudeste 0 1011.2 -1.7 44
2019-08-16 16:00:00 31.6 15 Sudeste 33 Sudeste 0 1011.7 -1.8 49
2019-08-16 15:00:00 31.9 15 Sudeste 32 Sudeste 0 1012.3 -1.4 49
2019-08-16 14:00:00 31.7 18 Sudeste 33 Sudeste 0 1012.9 -1.4 46
2019-08-16 13:00:00 31.9 14 Sudeste 26 Sudeste 0 1013.5 -0.5 49
2019-08-16 12:00:00 31.2 12 Sudeste 21 Sur 0 1013.7 -0.3 44
2019-08-16 11:00:00 29.1 5 Este 16 Norte 0 1014.3 0.5 53
2019-08-16 10:00:00 28.3 8 Norte 21 Norte 0 1014 0.4 39
2019-08-16 09:00:00 25.2 8 Norte 18 Norte 0 1014 0.6 44
2019-08-16 08:00:00 22.7 7 Norte 16 Norte 0 1013.8 0.2 53
2019-08-16 07:00:00 22.6 9 Norte 14 Norte 0 1013.6 -0.2 55
2019-08-16 06:00:00 22.6 5 Norte 11 Norte 0 1013.4 -0.7 73
2019-08-16 05:00:00 22.7 5 Noroeste 11 Norte 0 1013.6 -0.7 80
2019-08-16 04:00:00 23 3 Norte 5 Norte 0 1013.8 -0.4 82
2019-08-16 03:00:00 23.9 0 Calma 5 Oeste 0 1014.1 0.2 78
2019-08-16 02:00:00 24.2 4 Nordeste 12 Oeste 0 1014.3 0.8 78
2019-08-16 01:00:00 24.7 0 Calma 9 Sur 0 1014.2 1.2 75
2019-08-16 00:00:00 25.3 5 Sur 8 Sur 0 1013.9 1.7 71
2019-08-15 23:00:00 26 3 Sudeste 9 Sudeste 0 1013.5 1.7 69
2019-08-15 22:00:00 26.7 7 Sudeste 18 Sur 0 1013 1.6 67
2019-08-15 21:00:00 28.2 11 Sur 23 Sur 0 1012.2 0.7 60
2019-08-15 20:00:00 30.3 15 Sur 26 Sur 0 1011.8 0.2 52
2019-08-15 19:00:00 32.8 15 Sur 31 Sur 0 1011.4 -0.7 48
2019-08-15 18:00:00 33.4 14 Sudeste 28 Sudeste 0 1011.5 -1.1 46
2019-08-15 17:00:00 33 14 Sudeste 31 Sudeste 0 1011.6 -1.3 45
2019-08-15 16:00:00 34.3 14 Sudeste 28 Sudeste 0 1012.1 -1.1 43
2019-08-15 15:00:00 35.1 16 Sudeste 30 Sudeste 0 1012.6 -1.1 41
2019-08-15 14:00:00 34.3 15 Sudeste 28 Sur 0 1012.9 -1.2 43
2019-08-15 13:00:00 34 9 Sudeste 18 Nordeste 0 1013.2 -1.2 34
2019-08-15 12:00:00 32.8 8 Nordeste 17 Nordeste 0 1013.7 -0.6 36
2019-08-15 11:00:00 30.6 7 Este 14 Nordeste 0 1014.1 0.2 43
2019-08-15 10:00:00 27.5 3 Noroeste 9 Noroeste 0 1014.4 1.1 54
2019-08-15 09:00:00 25 2 Nordeste 6 Este 0 1014.3 1.5 72
2019-08-15 08:00:00 21 2 Norte 8 Norte 0 1013.9 1.1 87
2019-08-15 07:00:00 20.9 5 Noroeste 8 Noroeste 0 1013.3 0.6 87
2019-08-15 06:00:00 20.9 4 Norte 9 Nordeste 0 1012.8 -0.1 86
2019-08-15 05:00:00 21.7 2 Este 8 Noroeste 0 1012.8 -0.2 82
2019-08-15 04:00:00 21.7 2 Nordeste 9 Norte 0 1012.7 -0.3 82
2019-08-15 03:00:00 22.2 3 Norte 9 Norte 0 1012.9 0 81
2019-08-15 02:00:00 22.7 5 Norte 8 Norte 0 1013 0.3 80
2019-08-15 01:00:00 23.7 2 Sudeste 10 Sudeste 0 1013 0.8 77
2019-08-15 00:00:00 24.5 6 Sudeste 15 Sudeste 0 1012.9 1.2 74
2019-08-14 23:00:00 25.3 7 Sudeste 17 Sur 0 1012.7 1.5 70
2019-08-14 22:00:00 26.3 9 Sur 19 Sur 0 1012.2 1.2 65
2019-08-14 21:00:00 27.8 12 Sur 27 Sur 0 1011.7 0.8 59
2019-08-14 20:00:00 30.1 15 Sur 27 Sur 0 1011.2 0.1 52
2019-08-14 19:00:00 32.9 15 Sur 28 Sur 0 1011 -0.4 39
2019-08-14 18:00:00 34.3 16 Sur 28 Sur 0 1010.9 -1.2 36
2019-08-14 17:00:00 35.7 14 Sur 30 Sur 0 1011.1 -1.8 33
2019-08-14 16:00:00 35.5 11 Sur 25 Sudeste 0 1011.4 -2.1 27
2019-08-14 15:00:00 35.3 9 Sur 22 Sur 0 1012.1 -2.1 18
2019-08-14 14:00:00 33.8 8 Sur 21 Sudeste 0 1012.9 -1.5 19
2019-08-14 13:00:00 33 6 Sur 13 Sur 0 1013.5 -1.3 20
2019-08-14 12:00:00 31.2 6 Este 15 Este 0 1014.2 -0.4 19
2019-08-14 11:00:00 28.9 4 Norte 12 Norte 0 1014.4 0.3 26
2019-08-14 10:00:00 26 2 Sudeste 6 Este 0 1014.8 1.1 37
2019-08-14 09:00:00 20.9 3 Sudeste 6 Sudeste 0 1014.6 1.2 55
2019-08-14 08:00:00 18.8 2 Nordeste 5 Oeste 0 1014.1 0.6 60
2019-08-14 07:00:00 20 4 Nordeste 13 Norte 0 1013.7 0 50
2019-08-14 06:00:00 20.6 5 Nordeste 17 Nordeste 0 1013.4 -0.4 41
2019-08-14 05:00:00 21 8 Norte 17 Nordeste 0 1013.5 -0.5 43
2019-08-14 04:00:00 21.3 8 Oeste 23 Norte 0 1013.7 -0.1 53
2019-08-14 03:00:00 22.2 10 Noroeste 26 Norte 0 1013.8 0.1 56
2019-08-14 02:00:00 22.6 13 Norte 27 Norte 0 1014 0.6 40
2019-08-14 01:00:00 21.1 7 Norte 15 Noroeste 0 1013.8 1 73
2019-08-14 00:00:00 21.8 6 Norte 10 Norte 0 1013.7 1.4 70
2019-08-13 23:00:00 22.7 4 Sur 14 Sudoeste 0 1013.4 1.3 66
2019-08-13 22:00:00 23.9 6 Sudeste 13 Sudoeste 0 1012.8 0.7 61
2019-08-13 21:00:00 25.6 4 Sudeste 23 Sudoeste 0 1012.3 0.4 55
2019-08-13 20:00:00 27.6 12 Sur 29 Sudoeste 0 1012.1 -0.1 49
2019-08-13 19:00:00 29.4 16 Sur 30 Sur 0 1012.1 -0.6 42
2019-08-13 18:00:00 31.4 15 Sur 26 Sudoeste 0 1011.9 -1.4 37
2019-08-13 17:00:00 31.4 11 Sudeste 25 Sudeste 0 1012.2 -1.5 35
2019-08-13 16:00:00 32.8 10 Sur 19 Sudeste 0 1012.7 -1.7 27
2019-08-13 15:00:00 31.4 6 Este 22 Nordeste 0 1013.3 -1.6 25
2019-08-13 14:00:00 31.4 10 Nordeste 30 Nordeste 0 1013.7 -1.4 25
2019-08-13 13:00:00 27 13 Norte 28 Norte 0 1014.4 -0.8 31
2019-08-13 12:00:00 26.6 15 Nordeste 32 Nordeste 0 1014.9 -0.4 31
2019-08-13 11:00:00 25.5 12 Noroeste 34 Noroeste 0 1015.1 0.1 33
2019-08-13 10:00:00 23.6 12 Norte 34 Oeste 0 1015.2 0.6 38
2019-08-13 09:00:00 22.2 11 Norte 31 Norte 0 1015.3 0.9 43
2019-08-13 08:00:00 20.9 13 Norte 41 Noroeste 0 1015 0.7 44
2019-08-13 07:00:00 20.6 16 Norte 44 Oeste 0 1014.6 0 45
2019-08-13 06:00:00 20.7 21 Noroeste 40 Noroeste 0 1014.4 -0.1 43
2019-08-13 05:00:00 20.7 12 Norte 37 Oeste 0 1014.3 -0.3 45
2019-08-13 04:00:00 21.4 10 Norte 41 Noroeste 0 1014.6 0 42
2019-08-13 03:00:00 22.2 19 Noroeste 36 Noroeste 0 1014.5 0.1 40
2019-08-13 02:00:00 22.8 8 Norte 24 Norte 0 1014.6 0.5 38
2019-08-13 01:00:00 22.9 9 Norte 29 Noroeste 0 1014.6 1.6 35
2019-08-13 00:00:00 23.5 21 Noroeste 41 Oeste 0 1014.4 2.7 34
2019-08-12 23:00:00 24.1 12 Noroeste 39 Noroeste 0 1014.1 3.3 34
2019-08-12 22:00:00 25.3 11 Norte 28 Norte 0 1013 2.6 33
2019-08-12 21:00:00 26.7 11 Noroeste 30 Noroeste 0 1011.7 1.4 29
2019-08-12 20:00:00 28.9 13 Noroeste 30 Noroeste 0 1010.8 0.5 24
2019-08-12 19:00:00 30.6 16 Noroeste 33 Norte 0 1010.4 -0.2 22
2019-08-12 18:00:00 31.9 16 Noroeste 31 Noroeste 0 1010.3 -0.6 22
2019-08-12 17:00:00 32.6 14 Noroeste 33 Noroeste 0 1010.3 -1 21
2019-08-12 16:00:00 33 12 Noroeste 29 Noroeste 0 1010.6 -1 22
2019-08-12 15:00:00 32.3 9 Noroeste 30 Oeste 0 1010.9 -1 24
2019-08-12 14:00:00 30.6 17 Noroeste 35 Noroeste 0 1011.3 -0.5 28
2019-08-12 13:00:00 28.6 14 Noroeste 30 Noroeste 0 1011.6 0.2 33
2019-08-12 12:00:00 28.8 9 Noroeste 33 Noroeste 0 1011.9 0.9 35
2019-08-12 11:00:00 25.8 16 Noroeste 36 Noroeste 0 1011.8 1.5 39
2019-08-12 10:00:00 24.9 14 Noroeste 27 Noroeste 0 1011.4 1.7 44
2019-08-12 09:00:00 23.9 13 Noroeste 30 Norte 0 1011 2.1 48
2019-08-12 08:00:00 22.7 12 Norte 28 Norte 0 1010.3 1.5 50
2019-08-12 07:00:00 22.9 10 Norte 28 Noroeste 0 1009.7 0.9 50
2019-08-12 06:00:00 23.1 11 Norte 27 Norte 0 1008.9 -0.1 51
2019-08-12 05:00:00 23.5 12 Noroeste 34 Oeste 0 1008.8 -0.2 49
2019-08-12 04:00:00 23.8 12 Norte 42 Noroeste 0 1008.8 0 50
2019-08-12 03:00:00 24.3 11 Noroeste 43 Noroeste 0 1009 0.3 49
2019-08-12 02:00:00 24.5 13 Norte 30 Norte 0 1009 0.9 55
2019-08-12 01:00:00 24.6 12 Norte 31 Noroeste 0 1008.8 1.1 63
2019-08-12 00:00:00 25 6 Nordeste 12 Nordeste 0 1008.7 1.7 90
2019-08-11 23:00:00 25.1 4 Noroeste 7 Nordeste 0 1008.1 1 88
2019-08-11 22:00:00 25.5 5 Oeste 9 Sudoeste 0 1007.7 0.9 85
2019-08-11 21:00:00 26.2 3 Sudeste 7 Este 0 1007 -0.4 80
2019-08-11 20:00:00 26.8 3 Este 9 Nordeste 0 1007.1 -0.4 77
2019-08-11 19:00:00 26.1 3 Norte 14 Sur 0 1006.8 -0.5 87
2019-08-11 18:00:00 26.2 5 Oeste 12 Sur 4.8 1007.4 0.1 91
2019-08-11 17:00:00 27.3 5 Oeste 22 Sudoeste 8.4 1007.5 -0.5 87
2019-08-11 16:00:00 31.6 10 Sur 28 Sudeste 0 1007.3 -1.1 58
2019-08-11 15:00:00 34.3 12 Sudeste 26 Sudeste 0 1007.3 -1.8 46
2019-08-11 14:00:00 33.5 13 Sudeste 27 Sudeste 0 1008 -1.3 47
2019-08-11 13:00:00 32.9 5 Sudeste 26 Norte 0 1008.4 -1.2 44
2019-08-11 12:00:00 32.2 8 Nordeste 22 Norte 0 1009.1 -0.4 45
2019-08-11 11:00:00 29.9 5 Este 23 Este 0 1009.3 -0.3 58
2019-08-11 10:00:00 27.7 12 Este 24 Este 0 1009.6 0.1 69
2019-08-11 09:00:00 26.9 6 Sudeste 14 Sudeste 0 1009.5 -0.1 75
2019-08-11 08:00:00 25.9 3 Sur 12 Sur 0 1009.6 -0.1 79
2019-08-11 07:00:00 25.6 5 Sur 11 Sudeste 0 1009.5 -0.6 80
2019-08-11 06:00:00 25.5 5 Sudeste 14 Sur 0 1009.6 -1 81
2019-08-11 05:00:00 25.4 5 Sudeste 13 Sudeste 0 1009.7 -1.3 82
2019-08-11 04:00:00 25.4 4 Sudeste 12 Sur 0 1010.1 -0.9 84
2019-08-11 03:00:00 25.3 7 Sur 14 Sur 0 1010.6 -0.6 85
2019-08-11 02:00:00 25.3 8 Sur 14 Sur 0 1011 -0.3 85
2019-08-11 01:00:00 25.4 6 Sur 12 Sudeste 0 1011 0 83
2019-08-11 00:00:00 26 7 Sur 14 Sur 0 1011.2 0.9 80
2019-08-10 23:00:00 26.6 9 Sur 18 Sur 0 1011.3 1.3 78
2019-08-10 22:00:00 27.3 10 Sur 17 Sur 0 1011 1.1 75
2019-08-10 21:00:00 28.4 10 Sudeste 22 Sudeste 0 1010.3 0.1 70
2019-08-10 20:00:00 30.3 11 Sudeste 22 Sur 0 1010 -0.6 62
2019-08-10 19:00:00 32.4 11 Sudeste 28 Sudeste 0 1009.9 -1.2 55
2019-08-10 18:00:00 34.2 14 Sudeste 29 Sur 0 1010.2 -1.3 48
2019-08-10 17:00:00 35.3 14 Sur 30 Sudeste 0 1010.6 -1 44
2019-08-10 16:00:00 35.7 14 Sudeste 34 Sur 0 1011.1 -0.8 42
2019-08-10 15:00:00 35.7 20 Sur 39 Sur 0 1011.5 -0.7 42
2019-08-10 14:00:00 34.4 14 Sudeste 31 Este 0 1011.6 -0.7 43
2019-08-10 13:00:00 37.4 8 Nordeste 27 Norte 0 1011.9 -0.2 23
2019-08-10 12:00:00 36.2 13 Nordeste 32 Norte 0 1012.2 0.5 25
2019-08-10 11:00:00 33.8 15 Norte 35 Norte 0 1012.3 1.3 31
2019-08-10 10:00:00 32 14 Norte 34 Norte 0 1012.1 2.1 36
2019-08-10 09:00:00 29.9 12 Norte 28 Norte 0 1011.7 2.6 37
2019-08-10 08:00:00 27.1 17 Norte 36 Norte 0 1011 2.3 44
2019-08-10 07:00:00 26.4 17 Norte 40 Norte 0 1010 1.7 46
2019-08-10 06:00:00 27.1 16 Norte 38 Nordeste 0 1009.1 1 44
2019-08-10 05:00:00 28.4 16 Norte 40 Norte 0 1008.7 0.5 47
2019-08-10 04:00:00 28.4 11 Norte 28 Norte 0 1008.3 0.1 50
2019-08-10 03:00:00 28.7 12 Norte 25 Norte 0 1008.1 0.3 49
2019-08-10 02:00:00 29.8 10 Noroeste 34 Noroeste 0 1008.2 0.8 48
2019-08-10 01:00:00 26.9 9 Norte 16 Noroeste 0 1008.2 1.6 73
2019-08-10 00:00:00 27.6 6 Oeste 13 Sudoeste 0 1007.8 2.1 76
2019-08-09 23:00:00 28.2 8 Sudoeste 13 Sudoeste 0 1007.4 2.3 71
2019-08-09 22:00:00 29.2 6 Sudoeste 8 Sudoeste 0 1006.6 1.5 57
2019-08-09 21:00:00 31 5 Sur 21 Sudeste 0 1005.7 0.5 47
2019-08-09 20:00:00 34.1 11 Sur 23 Sudeste 0 1005.1 -0.2 44
2019-08-09 19:00:00 35.8 15 Sudeste 31 Sudeste 0 1005.1 -0.8 32
2019-08-09 18:00:00 37.3 16 Sudeste 29 Sur 0 1005.2 -1.2 34
2019-08-09 17:00:00 39 15 Sudeste 28 Este 0 1005.3 -1.4 34
2019-08-09 16:00:00 38.3 12 Sudeste 29 Sudeste 0 1005.9 -1.1 36
2019-08-09 15:00:00 37.7 16 Sudeste 31 Sudeste 0 1006.4 -0.9 41
2019-08-09 14:00:00 37.7 18 Sudeste 28 Sudeste 0 1006.7 -0.9 44
2019-08-09 13:00:00 38.2 9 Sur 15 Sur 0 1007 -0.5 34
2019-08-09 12:00:00 35.2 8 Sudeste 15 Sur 0 1007.3 -0.5 36
2019-08-09 11:00:00 32.8 5 Sur 9 Sudeste 0 1007.6 -0.1 50
2019-08-09 10:00:00 29.5 3 Este 8 Sudeste 0 1007.5 0.3 60
2019-08-09 09:00:00 26.5 2 Este 5 Norte 0 1007.8 0.7 56
2019-08-09 08:00:00 23 0 Calma 8 Norte 0 1007.7 0.5 69
2019-08-09 07:00:00 22.4 5 Norte 6 Norte 0 1007.2 0 70
2019-08-09 06:00:00 23.1 5 Norte 7 Norte 0 1007.1 0 67
2019-08-09 05:00:00 23.7 3 Nordeste 6 Sur 0 1007.2 0 67
2019-08-09 04:00:00 24.3 5 Sur 8 Oeste 0 1007.2 0.1 61
2019-08-09 03:00:00 25.2 7 Sudoeste 13 Sudoeste 0 1007.1 0.2 64
2019-08-09 02:00:00 26 10 Sudoeste 13 Sudoeste 0 1007.2 0.2 58
2019-08-09 01:00:00 26.7 8 Sudoeste 12 Sudoeste 0 1007.1 0.6 50
2019-08-09 00:00:00 27.3 6 Sudeste 23 Sudeste 0 1006.9 1.1 46
2019-08-08 23:00:00 28 11 Sudeste 21 Sur 0 1007 1.5 45
2019-08-08 22:00:00 29.2 10 Sudeste 24 Sudeste 0 1006.5 1 45
2019-08-08 21:00:00 31.2 13 Sur 24 Sur 0 1005.8 0 38
2019-08-08 20:00:00 33.5 10 Sudeste 24 Sur 0 1005.5 -0.4 37
2019-08-08 19:00:00 35.1 12 Sudeste 28 Este 0 1005.5 -0.7 33
2019-08-08 18:00:00 34.7 15 Sudeste 33 Sudeste 0 1005.8 -0.7 35
2019-08-08 17:00:00 36 17 Sudeste 37 Este 0 1005.9 -0.9 31
2019-08-08 16:00:00 36.5 19 Sudeste 34 Este 0 1006.2 -0.9 30
2019-08-08 15:00:00 37.1 17 Sudeste 32 Sudeste 0 1006.5 -0.6 31
2019-08-08 14:00:00 36.6 14 Sudeste 27 Sudeste 0 1006.8 -0.7 36
2019-08-08 13:00:00 37 14 Sudeste 23 Sur 0 1007.1 -0.5 39
2019-08-08 12:00:00 36.6 7 Nordeste 17 Este 0 1007.1 -0.5 24
2019-08-08 11:00:00 33.6 6 Sur 13 Sur 0 1007.5 0.1 40
2019-08-08 10:00:00 30.3 5 Este 10 Este 0 1007.6 0.5 55
2019-08-08 09:00:00 27.6 3 Este 8 Sudeste 0 1007.6 0.8 70
2019-08-08 08:00:00 24.4 4 Sudoeste 8 Sur 0 1007.4 0.6 89
2019-08-08 07:00:00 24 7 Norte 16 Norte 0 1007.1 0.3 89
2019-08-08 06:00:00 24.5 6 Norte 11 Norte 0 1006.8 -0.2 88
2019-08-08 05:00:00 25.6 5 Norte 9 Noroeste 0 1006.8 -0.7 88
2019-08-08 04:00:00 25.9 3 Sudeste 5 Sur 0 1006.8 -0.5 87
2019-08-08 03:00:00 26.1 2 Sudoeste 9 Sur 0 1007 -0.5 86
2019-08-08 02:00:00 26.4 4 Sudoeste 12 Sur 0 1007.5 0.4 85
2019-08-08 01:00:00 26.6 6 Sudeste 15 Sudeste 0 1007.3 0.9 84
2019-08-08 00:00:00 26.8 10 Sur 20 Sur 0 1007.5 1.4 81
2019-08-07 23:00:00 26.9 6 Sudeste 18 Sur 0 1007.1 1.1 77
2019-08-07 22:00:00 27.4 6 Sudoeste 14 Sur 0 1006.4 0.3 74
2019-08-07 21:00:00 28.5 6 Sur 17 Sur 0 1006.1 0.2 67
2019-08-07 20:00:00 29.6 11 Sur 27 Sudoeste 0 1006 0.1 65
2019-08-07 19:00:00 29.9 10 Sur 21 Sur 0 1006.1 0.2 65
2019-08-07 18:00:00 30.7 10 Sudeste 18 Sudeste 0 1005.9 0.1 60
2019-08-07 17:00:00 31.2 13 Sur 28 Sur 0 1005.9 0.1 60
2019-08-07 16:00:00 32.3 15 Sur 33 Sur 0 1005.9 -0.1 58
2019-08-07 15:00:00 34.2 14 Sudeste 26 Sur 0 1005.8 -0.4 50
2019-08-07 14:00:00 32.2 10 Sudeste 25 Sudeste 0 1005.8 -0.3 54
2019-08-07 13:00:00 33.7 14 Sudeste 24 Sudeste 0 1006 0.2 51
2019-08-07 12:00:00 34.6 6 Nordeste 15 Norte 0 1006.2 0.8 37
2019-08-07 11:00:00 32 4 Norte 12 Este 0 1006.1 1.3 52
2019-08-07 10:00:00 29.6 4 Noroeste 10 Nordeste 0 1005.8 1.2 64
2019-08-07 09:00:00 26.5 2 Sur 5 Sur 0 1005.4 1 81
2019-08-07 08:00:00 25.1 2 Sudoeste 7 Noroeste 0 1004.8 0 86
2019-08-07 07:00:00 24.9 -- -- 6 Noroeste 0 1004.6 0.1 87
2019-08-07 06:00:00 25.4 3 Norte 5 Noroeste 0 1004.4 -0.3 84
2019-08-07 05:00:00 25.5 0 Calma 10 Sudoeste 0 1004.8 -0.2 84
2019-08-07 04:00:00 25.3 8 Sur 19 Sudoeste 0 1004.5 -0.9 85
2019-08-07 03:00:00 25.1 10 Sur 16 Sur 0 1004.7 -0.7 88
2019-08-07 02:00:00 24.7 6 Sur 9 Sur 0 1005 -0.4 88
2019-08-07 01:00:00 25.1 6 Sur 10 Sur 0 1005.4 0.4 86
2019-08-07 00:00:00 25.4 7 Sudeste 12 Sudeste 0 1005.4 1.1 84
2019-08-06 23:00:00 26 7 Sudeste 13 Sudeste 0 1005.4 0.9 81
2019-08-06 22:00:00 26.6 8 Sudeste 25 Este 0 1005 0.4 78
2019-08-06 21:00:00 27.7 11 Sudeste 22 Sur 0 1004.3 -1 72
2019-08-06 20:00:00 29.5 10 Sur 18 Sur 0 1004.5 -1 65
2019-08-06 19:00:00 30.1 13 Sudeste 25 Sudeste 0 1004.6 -1.4 63
2019-08-06 18:00:00 30.2 16 Sudeste 26 Sudeste 0 1005.3 -1.1 62
2019-08-06 17:00:00 32.8 14 Sudeste 30 Sur 0 1005.5 -1.8 55
2019-08-06 16:00:00 35.4 14 Sudeste 28 Sudeste 0 1006 -1.9 48
2019-08-06 15:00:00 34.8 11 Sudeste 26 Sudeste 0 1006.4 -1.8 48
2019-08-06 14:00:00 34.9 12 Sur 24 Sudeste 0 1007.3 -1 47
2019-08-06 13:00:00 33 10 Sudeste 21 Sur 0 1007.9 -0.4 52
2019-08-06 12:00:00 32.1 9 Sudeste 21 Sudeste 0 1008.2 0.2 54
2019-08-06 11:00:00 30.8 8 Sudeste 18 Sur 0 1008.3 0.5 58
2019-08-06 10:00:00 27.3 6 Sur 11 Sur 0 1008.3 0.5 73
2019-08-06 09:00:00 25.7 3 Sur 6 Sur 0 1008 0.1 76
2019-08-06 08:00:00 24.1 0 Calma 5 Noroeste 0 1007.8 -0.4 83
2019-08-06 07:00:00 23.6 4 Noroeste 5 Noroeste 0 1007.8 -0.7 82
2019-08-06 06:00:00 23.4 0 Calma 6 Sudoeste 0 1007.9 -0.6 83
2019-08-06 05:00:00 23.3 4 Sur 5 Sudeste 0 1008.2 -0.4 84
2019-08-06 04:00:00 23.3 4 Sur 11 Sur 0 1008.5 -0.2 84
2019-08-06 03:00:00 23.7 6 Sur 11 Sur 0 1008.5 -0.1 83
2019-08-06 02:00:00 24.1 7 Sur 10 Sur 0 1008.6 0.2 82
2019-08-06 01:00:00 24.7 5 Sur 13 Sur 0 1008.7 0.7 79
2019-08-06 00:00:00 25.2 8 Sudeste 15 Sudeste 0 1008.6 1 76
2019-08-05 23:00:00 25.8 8 Sudeste 15 Sudeste 0 1008.4 1.2 73
2019-08-05 22:00:00 26.6 10 Sudeste 21 Sudeste 0 1008 1 71
2019-08-05 21:00:00 27.7 13 Sudeste 27 Sudeste 0 1007.6 0.3 64
2019-08-05 20:00:00 30.2 15 Sudeste 32 Sudeste 0 1007.2 -1 48
2019-08-05 19:00:00 32.7 14 Sudeste 26 Sudeste 0 1007 -1.5 42
2019-08-05 18:00:00 33.1 12 Sudeste 33 Sudeste 0 1007.3 -1.6 39
2019-08-05 17:00:00 33.2 17 Sudeste 35 Sudeste 0 1008.2 -1.2 44
2019-08-05 16:00:00 33.5 18 Sudeste 33 Sudeste 0 1008.5 -1.5 41
2019-08-05 15:00:00 34.8 17 Sudeste 33 Sudeste 0 1008.9 -1.4 38
2019-08-05 14:00:00 34.3 15 Sudeste 30 Sudeste 0 1009.4 -1 38
2019-08-05 13:00:00 33.8 15 Sudeste 31 Sudeste 0 1010 -0.5 46
2019-08-05 12:00:00 32.8 14 Sur 23 Sur 0 1010.3 -0.1 50
2019-08-05 11:00:00 30.8 7 Sur 13 Sur 0 1010.4 0.1 57
2019-08-05 10:00:00 29.1 3 Sur 9 Sur 0 1010.5 0.5 63
2019-08-05 09:00:00 25.7 4 Norte 9 Norte 0 1010.4 0.9 73
2019-08-05 08:00:00 22.8 6 Norte 10 Norte 0 1010.3 0.9 83
2019-08-05 07:00:00 22.2 6 Noroeste 8 Norte 0 1010 0.4 86
2019-08-05 06:00:00 22.8 4 Norte 13 Sudoeste 0 1009.5 -0.1 86
2019-08-05 05:00:00 23.5 10 Sudoeste 13 Sudoeste 0 1009.4 -0.5 84
2019-08-05 04:00:00 23.8 6 Sur 17 Sur 0 1009.6 -0.2 84
2019-08-05 03:00:00 24.4 11 Sudeste 20 Sudeste 0 1009.6 -0.1 83
2019-08-05 02:00:00 24.9 12 Sudeste 23 Sudeste 0 1009.9 0.4 81
2019-08-05 01:00:00 25.1 13 Sudeste 24 Sudeste 0 1009.8 0.5 78
2019-08-05 00:00:00 25.3 13 Sudeste 22 Sudeste 0 1009.7 1 79
2019-08-04 23:00:00 25.6 10 Sudeste 17 Sudeste 0 1009.5 1.2 77
2019-08-04 22:00:00 26.2 10 Sudeste 28 Sudeste 0 1009.3 1.5 73
2019-08-04 21:00:00 27.1 12 Sudeste 28 Sudeste 0 1008.7 0.8 71
2019-08-04 20:00:00 27.9 14 Sudeste 32 Sudeste 0 1008.3 0.1 67
2019-08-04 19:00:00 28.8 15 Sudeste 33 Sudeste 0 1007.8 -0.9 63
2019-08-04 18:00:00 31.6 18 Sudeste 35 Sudeste 0 1007.9 -1.1 53
2019-08-04 17:00:00 30.4 19 Sudeste 35 Sudeste 0 1008.2 -0.9 57
2019-08-04 16:00:00 30.1 18 Sudeste 38 Este 0 1008.7 -0.5 53
2019-08-04 15:00:00 33 20 Sudeste 40 Sudeste 0 1009 -0.6 49
2019-08-04 14:00:00 34 17 Sudeste 32 Sudeste 0 1009.1 -0.6 44
2019-08-04 13:00:00 34.3 16 Sudeste 26 Sudeste 0 1009.2 -0.6 44
2019-08-04 12:00:00 32.8 13 Sudeste 23 Sudeste 0 1009.6 -0.2 48
2019-08-04 11:00:00 31.2 8 Sudeste 14 Sudeste 0 1009.7 0.4 48
2019-08-04 10:00:00 28.8 8 Sur 13 Sur 0 1009.8 0.8 60
2019-08-04 09:00:00 25.8 2 Sur 5 Norte 0 1009.8 1.1 62
2019-08-04 08:00:00 22.4 4 Noroeste 8 Norte 0 1009.3 0.7 75
2019-08-04 07:00:00 21.7 3 Norte 13 Sudoeste 0 1009 0.2 72
2019-08-04 06:00:00 22.3 8 Sudoeste 9 Sudoeste 0 1008.7 -0.2 72
2019-08-04 05:00:00 22.5 6 Sudoeste 15 Sudoeste 0 1008.6 -0.3 75
2019-08-04 04:00:00 23.1 7 Sudoeste 10 Sudoeste 0 1008.8 0 73
2019-08-04 03:00:00 24.1 7 Sudeste 19 Sudeste 0 1008.9 0.2 78
2019-08-04 02:00:00 24.6 12 Sudeste 23 Sudeste 0 1008.9 0.5 70
2019-08-04 01:00:00 24.8 14 Sudeste 22 Sur 0 1008.8 0.7 68
2019-08-04 00:00:00 25.4 10 Sudeste 21 Sudeste 0 1008.7 1 68
2019-08-03 23:00:00 26 13 Sudeste 22 Sudeste 0 1008.4 0.7 65
2019-08-03 22:00:00 27 10 Sudeste 19 Sur 0 1008.1 0.4 55
2019-08-03 21:00:00 28.1 11 Sur 28 Sur 0 1007.7 0 50
2019-08-03 20:00:00 29.2 15 Sur 31 Este 0 1007.7 -0.5 45
2019-08-03 19:00:00 30.2 16 Sudeste 37 Sudeste 0 1007.7 -1 50
2019-08-03 18:00:00 31.1 17 Sudeste 42 Sudeste 0 1007.7 -1.5 48
2019-08-03 17:00:00 31.9 21 Sudeste 40 Sudeste 0 1008.2 -1.4 48
2019-08-03 16:00:00 32.2 18 Sudeste 37 Este 0 1008.7 -1.3 48
2019-08-03 15:00:00 32.5 17 Sudeste 38 Sudeste 0 1009.2 -1.2 49
2019-08-03 14:00:00 32.2 21 Sudeste 37 Sudeste 0 1009.6 -1.1 48
2019-08-03 13:00:00 34 13 Sudeste 28 Sudeste 0 1010 -0.8 41
2019-08-03 12:00:00 31.5 9 Sudeste 21 Sur 0 1010.4 -0.3 48
2019-08-03 11:00:00 30.2 9 Sudeste 17 Sudeste 0 1010.7 0 51
2019-08-03 10:00:00 27.8 6 Sur 10 Sur 0 1010.8 0.5 60
2019-08-03 09:00:00 24.9 4 Norte 7 Nordeste 0 1010.7 0.6 69
2019-08-03 08:00:00 21.7 2 Norte 4 Nordeste 0 1010.7 0.3 81
2019-08-03 07:00:00 21.2 0 Calma 5 Noroeste 0 1010.3 -0.4 83
2019-08-03 06:00:00 21.2 2 Norte 5 Nordeste 0 1010.1 -0.8 84
2019-08-03 05:00:00 21.7 0 Calma 5 Sudeste 0 1010.4 -0.5 83
2019-08-03 04:00:00 22.1 4 Sur 6 Sur 0 1010.7 -0.2 82
2019-08-03 03:00:00 22.7 2 Sudeste 6 Sur 0 1010.9 0.2 79
2019-08-03 02:00:00 23.1 5 Sudoeste 6 Sudoeste 0 1010.9 0.2 78
2019-08-03 01:00:00 23.7 4 Sur 7 Sur 0 1010.9 0.7 76
2019-08-03 00:00:00 24.4 3 Sur 10 Sur 0 1010.7 1.1 74
2019-08-02 23:00:00 25.2 6 Sudeste 17 Sudeste 0 1010.7 1.5 69
2019-08-02 22:00:00 25.8 12 Sudeste 29 Sudeste 0 1010.2 1.1 65
2019-08-02 21:00:00 27 13 Sudeste 30 Este 0 1009.6 0.3 57
2019-08-02 20:00:00 29.1 14 Sudeste 27 Sudeste 0 1009.2 -0.4 46
2019-08-02 19:00:00 31.2 15 Sudeste 30 Este 0 1009.1 -0.7 38
2019-08-02 18:00:00 32.6 17 Sudeste 36 Este 0 1009.3 -0.4 34
2019-08-02 17:00:00 32.9 17 Sudeste 39 Sudeste 0 1009.6 -0.2 31
2019-08-02 16:00:00 33.1 19 Sudeste 37 Sudeste 0 1009.8 0.1 31
2019-08-02 15:00:00 35.2 19 Sudeste 36 Sudeste 0 1009.7 -0.2 25
2019-08-02 14:00:00 35.7 14 Sudeste 28 Sudeste 0 1009.8 -0.3 26
2019-08-02 13:00:00 35.4 6 Nordeste 17 Norte 0 1009.7 -0.5 28
2019-08-02 12:00:00 34.3 9 Nordeste 24 Nordeste 0 1009.9 -0.1 33
2019-08-02 11:00:00 32 9 Norte 21 Norte 0 1010.1 0.3 38
2019-08-02 10:00:00 29.8 7 Norte 22 Norte 0 1010.2 0.3 45
2019-08-02 09:00:00 26.1 9 Nordeste 17 Norte 0 1010 0.3 56
2019-08-02 08:00:00 20.7 3 Noroeste 8 Oeste 0 1009.8 -0.1 69
2019-08-02 07:00:00 19.9 2 Norte 12 Norte 0 1009.9 0.1 73
2019-08-02 06:00:00 20.2 7 Noroeste 10 Norte 0 1009.7 0.3 69
2019-08-02 05:00:00 21 6 Norte 14 Noroeste 0 1009.9 0.5 69
2019-08-02 04:00:00 21.1 10 Noroeste 13 Noroeste 0 1009.8 0.5 67
2019-08-02 03:00:00 21.8 5 Norte 7 Norte 0 1009.4 0.3 73
2019-08-02 02:00:00 22.7 3 Nordeste 7 Oeste 0 1009.4 0.7 76
2019-08-02 01:00:00 23.2 6 Sudoeste 9 Sudoeste 0 1009.3 1.1 75
2019-08-02 00:00:00 23.5 7 Sudoeste 11 Sudoeste 0 1009.1 1.6 74
2019-08-01 23:00:00 24.2 5 Sur 11 Sur 0 1008.7 1.8 70
2019-08-01 22:00:00 25.2 6 Sur 20 Sudeste 0 1008.2 1.7 63
2019-08-01 21:00:00 26.7 11 Sur 22 Sudeste 0 1007.5 0.2 55
2019-08-01 20:00:00 29.7 13 Sur 22 Sur 0 1006.9 -1 36
2019-08-01 19:00:00 31.8 10 Sur 29 Sur 0 1006.5 -1.9 30
2019-08-01 18:00:00 33.1 13 Sur 21 Sur 0 1007.3 -0.8 33
2019-08-01 17:00:00 31.6 11 Sudeste 31 Este 0 1007.9 -0.8 30
2019-08-01 16:00:00 32.3 13 Sudeste 30 Sudeste 0 1008.4 -0.9 27
2019-08-01 15:00:00 32.3 11 Este 27 Este 0 1008.1 -1.5 28
2019-08-01 14:00:00 31.1 14 Este 31 Sudeste 0 1008.7 -0.9 34
2019-08-01 13:00:00 31.3 12 Sudeste 26 Sudeste 0 1009.3 -0.1 39
2019-08-01 12:00:00 31 11 Sudeste 23 Sudeste 0 1009.6 0.2 43
2019-08-01 11:00:00 29.6 9 Sudeste 21 Sudeste 0 1009.6 0.4 48
2019-08-01 10:00:00 27.7 8 Sudeste 15 Sudeste 0 1009.4 0.7 60
2019-08-01 09:00:00 25.1 3 Sudoeste 8 Sur 0 1009.4 0.7 71
2019-08-01 08:00:00 22 3 Sudoeste 7 Sudoeste 0 1009.2 -0.4 83
2019-08-01 07:00:00 21.8 3 Sur 8 Sudoeste 0 1008.7 -1.6 83
2019-08-01 06:00:00 22 5 Sudoeste 9 Sur 0 1008.7 -1.7 83
2019-08-01 05:00:00 22.8 6 Sur 13 Sur 0 1009.6 -1.5 80
2019-08-01 04:00:00 22.9 9 Sudeste 13 Sudeste 0 1010.3 -0.9 80
2019-08-01 03:00:00 23 6 Sur 16 Sur 0 1010.4 -1 79
2019-08-01 02:00:00 23 10 Sur 16 Sur 0 1011.1 -0.3 79
2019-08-01 01:00:00 23.5 8 Sur 15 Sudeste 0 1011.2 0.5 75
2019-08-01 00:00:00 24.2 8 Sudeste 19 Sudeste 0 1011.4 1.6 73
2019-07-31 23:00:00 24.4 10 Sudeste 21 Sudeste 0 1011.4 0.8 72
2019-07-31 22:00:00 24.7 10 Sudeste 24 Sudeste 0 1010.7 -0.1 71
2019-07-31 21:00:00 25.1 14 Sudeste 31 Sudeste 0 1009.8 -1.3 69
2019-07-31 20:00:00 25.9 18 Sudeste 32 Sudeste 0 1010.6 -1 66
2019-07-31 19:00:00 26.9 -- -- 30 Sudeste 0 1010.8 -1 62
2019-07-31 18:00:00 27.9 13 Sudeste 29 Sudeste 0 1011.1 -1.3 59
2019-07-31 17:00:00 28.4 17 Sudeste 34 Sudeste 0 1011.6 -1.4 56
2019-07-31 16:00:00 29.6 17 Sudeste 36 Sur 0 1011.8 -1.4 51
2019-07-31 15:00:00 29.2 15 Sudeste 34 Sudeste 0 1012.4 -1.2 52
2019-07-31 14:00:00 32.2 14 Sudeste 32 Sudeste 0 1013 -0.5 43
2019-07-31 13:00:00 30.6 12 Sur 23 Sur 0 1013.2 0.1 40
2019-07-31 12:00:00 29.2 7 Norte 24 Nordeste 0 1013.6 0 31
2019-07-31 11:00:00 25.9 13 Norte 36 Norte 0 1013.5 -0.1 35
2019-07-31 10:00:00 25.2 13 Norte 39 Norte 0 1013.1 -0.3 35
2019-07-31 09:00:00 23.9 13 Norte 32 Norte 0 1013.6 0.6 37
2019-07-31 08:00:00 21.9 13 Norte 26 Norte 0 1013.6 0.9 40
2019-07-31 07:00:00 21.4 13 Norte 25 Nordeste 0 1013.4 1 40
2019-07-31 06:00:00 21.4 13 Norte 25 Nordeste 0 1013 0.4 40
2019-07-31 05:00:00 21.8 12 Norte 22 Norte 0 1012.7 -0.1 39
2019-07-31 04:00:00 22.2 10 Norte 21 Norte 0 1012.4 -0.2 40
2019-07-31 03:00:00 22.8 8 Norte 17 Norte 0 1012.6 0.4 38
2019-07-31 02:00:00 24 8 Noroeste 26 Noroeste 0 1012.8 0.9 38
2019-07-31 01:00:00 24 6 Noroeste 14 Noroeste 0 1012.6 1.8 53
2019-07-31 00:00:00 24.9 4 Norte 9 Nordeste 0 1012.2 2.2 73
2019-07-30 23:00:00 25.6 3 Norte 9 Sudeste 0 1011.9 2.5 70
2019-07-30 22:00:00 26.2 5 Sudeste 23 Sudeste 0 1010.8 1.7 69
2019-07-30 21:00:00 27.4 12 Sudeste 22 Este 0 1010 0.9 60
2019-07-30 20:00:00 28.8 13 Sudeste 25 Sudeste 0 1009.4 0.6 52
2019-07-30 19:00:00 31.2 12 Sudeste 29 Sudeste 0 1009.1 0.3 39
2019-07-30 18:00:00 32.9 19 Sur 34 Sudeste 0 1009.1 -0.4 37
2019-07-30 17:00:00 36.1 10 Nordeste 28 Nordeste 0 1008.8 -1.3 19
2019-07-30 16:00:00 36.5 13 Nordeste 34 Norte 0 1008.8 -1.9 19
2019-07-30 15:00:00 35.9 10 Norte 28 Norte 0 1009.5 -1.4 20
2019-07-30 14:00:00 34.7 9 Norte 23 Norte 0 1010.1 -0.7 23
2019-07-30 13:00:00 32.6 10 Norte 32 Noroeste 0 1010.7 -0.1 26
2019-07-30 12:00:00 29.8 16 Noroeste 36 Oeste 0 1010.9 0.6 31
2019-07-30 11:00:00 28 20 Noroeste 43 Noroeste 0 1010.8 1.1 35
2019-07-30 10:00:00 27.1 14 Noroeste 36 Noroeste 0 1010.8 1.7 37
2019-07-30 09:00:00 26.5 12 Norte 26 Oeste 0 1010.3 2 40
2019-07-30 08:00:00 24.3 9 Norte 24 Noroeste 0 1009.7 2 46
2019-07-30 07:00:00 22.8 6 Norte 19 Oeste 0 1009.1 2 52
2019-07-30 06:00:00 23.3 -- -- 33 Oeste 0 1008.3 1.2 53
2019-07-30 05:00:00 24.9 13 Noroeste 37 Noroeste 0 1007.7 0.5 47
2019-07-30 04:00:00 24.1 10 Noroeste 25 Norte 0 1007.1 0.7 63
2019-07-30 03:00:00 24.2 5 Noroeste 16 Noroeste 0 1007.1 1 81
2019-07-30 02:00:00 24.8 8 Oeste 16 Noroeste 0 1007.2 1.3 80
2019-07-30 01:00:00 25.2 8 Sudeste 17 Sudeste 0 1006.4 1.2 76
2019-07-30 00:00:00 25.5 8 Sudeste 24 Sudeste 0 1006.1 1.5 72
2019-07-29 23:00:00 26.2 12 Sudeste 22 Sudeste 0 1005.9 1.8 70
2019-07-29 22:00:00 27.1 13 Sudeste 27 Sudeste 0 1005.2 1.2 64
2019-07-29 21:00:00 28.8 11 Sur 30 Sur 0 1004.6 0.3 56
2019-07-29 20:00:00 31.1 17 Sur 29 Sur 0 1004.1 -0.5 42
2019-07-29 19:00:00 31.4 13 Sudeste 30 Sudeste 0 1004 -0.7 48
2019-07-29 18:00:00 32.1 17 Sudeste 33 Sudeste 0 1004.3 -0.7 37
2019-07-29 17:00:00 34.3 17 Sudeste 31 Sudeste 0 1004.6 -0.8 43
2019-07-29 16:00:00 35.2 12 Sudeste 29 Sudeste 0 1004.7 -1.1 42
2019-07-29 15:00:00 34.9 16 Sudeste 26 Sudeste 0 1005 -1.1 41
2019-07-29 14:00:00 33.9 12 Sudeste 23 Sudeste 0 1005.4 -0.8 40
2019-07-29 13:00:00 33.5 10 Sur 19 Sur 0 1005.8 -0.6 32
2019-07-29 12:00:00 32.3 10 Sur 19 Sudoeste 0 1006.1 -0.3 28
2019-07-29 11:00:00 29.9 4 Sur 10 Noroeste 0 1006.2 0 33
2019-07-29 10:00:00 26.6 6 Norte 12 Noroeste 0 1006.4 0.7 39
2019-07-29 09:00:00 24 5 Norte 10 Noroeste 0 1006.4 1 46
2019-07-29 08:00:00 20.8 3 Nordeste 6 Nordeste 0 1006.2 0.8 63
2019-07-29 07:00:00 19 4 Norte 8 Este 0 1005.7 0.1 64
2019-07-29 06:00:00 18.9 5 Sudeste 9 Sudeste 0 1005.4 -0.3 70
2019-07-29 05:00:00 19.6 5 Noroeste 10 Norte 0 1005.4 -0.6 64
2019-07-29 04:00:00 20.5 4 Noroeste 14 Noroeste 0 1005.6 -0.5 63
2019-07-29 03:00:00 20.8 5 Noroeste 12 Norte 0 1005.7 -0.3 64
2019-07-29 02:00:00 21.6 5 Noroeste 10 Noroeste 0 1006 -0.1 62
2019-07-29 01:00:00 22.5 3 Norte 13 Sudeste 0 1006.1 0.8 61
2019-07-29 00:00:00 23.1 8 Sudeste 12 Sudeste 0 1006 1.2 60
2019-07-28 23:00:00 24.1 7 Sur 15 Sur 0 1006.1 1.9 56
2019-07-28 22:00:00 25.4 10 Sudeste 19 Sur 0 1005.3 1.6 49
2019-07-28 21:00:00 27.4 12 Sur 24 Sur 0 1004.8 1.3 40
2019-07-28 20:00:00 29.6 14 Sur 28 Sur 0 1004.2 0.6 34
2019-07-28 19:00:00 31.5 14 Sur 32 Sur 0 1003.7 -0.4 32
2019-07-28 18:00:00 32.7 17 Sur 32 Sur 0 1003.5 -0.9 30
2019-07-28 17:00:00 33.8 9 Oeste 34 Oeste 0 1003.6 -1.3 18
2019-07-28 16:00:00 33.2 20 Oeste 36 Noroeste 0 1004.1 -1.2 20
2019-07-28 15:00:00 32.3 18 Noroeste 36 Oeste 0 1004.4 -1 22
2019-07-28 14:00:00 31.6 14 Noroeste 36 Noroeste 0 1004.9 -0.4 23
2019-07-28 13:00:00 29.7 15 Noroeste 37 Oeste 0 1005.3 -0.2 27
2019-07-28 12:00:00 28.3 13 Noroeste 44 Noroeste 0 1005.4 0.3 30
2019-07-28 11:00:00 25.7 23 Noroeste 50 Noroeste 0 1005.3 0.4 38
2019-07-28 10:00:00 23.9 19 Noroeste 38 Norte 0 1005.5 1.2 42
2019-07-28 09:00:00 22.8 19 Noroeste 45 Noroeste 0 1005.1 1.3 45
2019-07-28 08:00:00 21.4 18 Noroeste 40 Noroeste 0 1004.9 1.7 47
2019-07-28 07:00:00 20.2 19 Noroeste 41 Noroeste 0 1004.3 1.6 50
2019-07-28 06:00:00 20.4 11 Norte 37 Nordeste 0 1003.8 1.9 49
2019-07-28 05:00:00 20.7 16 Norte 52 Norte 0 1003.2 2.2 49
2019-07-28 04:00:00 21.2 19 Noroeste 55 Noroeste 0 1002.7 1.7 47
2019-07-28 03:00:00 21.8 29 Noroeste 73 Oeste 0 1001.9 1.1 45
2019-07-28 02:00:00 22.2 28 Noroeste 87 Noroeste 0 1001 -1.3 44
2019-07-28 01:00:00 22.2 42 Noroeste 84 Oeste 0 1001 -1.1 46
2019-07-28 00:00:00 22.8 33 Noroeste 71 Noroeste 0 1000.8 0.1 46
2019-07-27 23:00:00 23.4 26 Oeste 57 Oeste 0 1002.3 2.7 46
2019-07-26 12:00:00 31.3 13 Sur 22 Sur 0 1006.3 -0.6 54
2019-07-26 11:00:00 31.3 6 Sur 16 Sudeste 0 1006.5 -0.2 57
2019-07-26 10:00:00 29.4 5 Sudeste 9 Sudeste 0 1007 0.6 63
2019-07-26 09:00:00 26.9 3 Nordeste 7 Este 0 1006.9 0.6 67
2019-07-26 08:00:00 24 0 Calma 5 Sur 0 1006.7 0 71
2019-07-26 07:00:00 22.7 5 Sudoeste 15 Sur 0 1006.4 -0.6 79
2019-07-26 06:00:00 23.3 10 Sur 16 Sur 0 1006.3 -1.2 84
2019-07-26 05:00:00 23.2 12 Sudoeste 17 Sur 0 1006.7 -1.3 83
2019-07-26 04:00:00 23.9 10 Sur 15 Sudoeste 0 1007 -1.3 86
2019-07-26 03:00:00 24.4 9 Sur 18 Sudeste 0 1007.5 -1.1 83
2019-07-26 02:00:00 25.1 11 Sur 19 Sudeste 0 1008 -0.6 79
2019-07-26 01:00:00 25.6 11 Sur 19 Sur 0 1008.3 0.1 78
2019-07-26 00:00:00 25.8 7 Sur 13 Sudeste 0 1008.6 0.6 74